Time;durP1;ratioP1;P1;durP2;ratioP2;P2;SDS_P1;SDS_P2;PMS_P1;PMS_P2;Temp;Humidity;BMP_temperature;BMP_pressure;BME280_temperature;BME280_humidity;BME280_pressure;Samples;Min_cycle;Max_cycle;Signal;HPM_P1;HPM_P2
2020/12/13 00:00:35;;;;;;;54.30;20.38;;;9.00;95.90;;;;;;5025809;28;20060;-93
2020/12/13 00:03:01;;;;;;;56.90;21.02;;;9.00;95.90;;;;;;5032542;28;20018;-94
2020/12/13 00:05:30;;;;;;;91.88;21.80;;;9.00;95.90;;;;;;5032416;28;20021;-93
2020/12/13 00:07:56;;;;;;;57.80;19.95;;;8.90;95.90;;;;;;5032123;28;20053;-94
2020/12/13 00:10:22;;;;;;;46.83;18.75;;;8.90;95.90;;;;;;5030763;28;20018;-94
2020/12/13 00:12:48;;;;;;;48.78;17.75;;;8.90;96.00;;;;;;5031638;28;20172;-95
2020/12/13 00:15:20;;;;;;;54.95;18.88;;;8.90;96.10;;;;;;5016303;28;20021;-93
2020/12/13 00:17:47;;;;;;;49.92;18.15;;;8.90;96.00;;;;;;5031758;28;20108;-93
2020/12/13 00:20:15;;;;;;;53.95;18.80;;;8.90;96.00;;;;;;5032080;28;20140;-93
2020/12/13 00:22:45;;;;;;;65.45;18.88;;;8.90;96.00;;;;;;5030600;28;20045;-94
2020/12/13 00:25:11;;;;;;;54.63;19.40;;;8.90;96.00;;;;;;5031439;28;20022;-93
2020/12/13 00:27:47;;;;;;;62.55;20.02;;;8.90;96.00;;;;;;5015245;28;20029;-94
2020/12/13 00:30:13;;;;;;;52.88;21.13;;;8.90;96.00;;;;;;5030938;28;20046;-93
2020/12/13 00:32:38;;;;;;;52.30;20.67;;;8.90;96.00;;;;;;5030928;28;20036;-92
2020/12/13 00:35:07;;;;;;;47.40;19.05;;;8.90;95.90;;;;;;5030585;28;20068;-94
2020/12/13 00:37:32;;;;;;;56.78;18.92;;;8.90;95.90;;;;;;5034223;28;20030;-93
2020/12/13 00:40:03;;;;;;;59.28;20.17;;;8.90;95.90;;;;;;5018878;28;20025;-93
2020/12/13 00:42:31;;;;;;;59.92;19.73;;;8.90;95.90;;;;;;5038991;28;20030;-92
2020/12/13 00:44:59;;;;;;;46.50;17.40;;;8.90;95.90;;;;;;5026852;28;20034;-93
2020/12/13 00:47:28;;;;;;;47.13;17.13;;;8.90;95.90;;;;;;5019271;28;20040;-93
2020/12/13 00:49:56;;;;;;;67.25;18.08;;;8.90;96.00;;;;;;5032975;28;20021;-93
2020/12/13 00:52:22;;;;;;;47.92;17.27;;;8.90;96.00;;;;;;5041331;28;20028;-93
2020/12/13 00:54:47;;;;;;;52.05;18.10;;;8.90;96.00;;;;;;5032244;28;20042;-94
2020/12/13 00:57:13;;;;;;;65.40;20.48;;;8.90;96.00;;;;;;5020815;28;20032;-93
2020/12/13 00:59:43;;;;;;;59.92;19.55;;;8.90;95.90;;;;;;5044491;28;20037;-94
2020/12/13 01:02:11;;;;;;;70.80;20.93;;;8.90;95.90;;;;;;5032339;28;20065;-94
2020/12/13 01:04:37;;;;;;;59.88;19.80;;;8.90;95.90;;;;;;5016287;28;20280;-93
2020/12/13 01:07:04;;;;;;;63.70;18.02;;;8.80;95.90;;;;;;5027172;28;20018;-94
2020/12/13 01:09:33;;;;;;;49.42;17.40;;;8.80;96.00;;;;;;5014709;28;20022;-94
2020/12/13 01:11:59;;;;;;;57.03;19.23;;;8.80;96.00;;;;;;5014245;28;20037;-93
2020/12/13 01:14:24;;;;;;;58.53;18.67;;;8.80;95.90;;;;;;5035250;28;20026;-93
2020/12/13 01:16:54;;;;;;;69.53;18.42;;;8.80;95.90;;;;;;5034213;28;20029;-92
2020/12/13 01:19:20;;;;;;;60.30;19.48;;;8.80;95.90;;;;;;5033391;28;20469;-92
2020/12/13 01:21:46;;;;;;;70.18;21.00;;;8.70;95.80;;;;;;5050781;28;20133;-92
2020/12/13 01:24:12;;;;;;;52.55;18.33;;;8.70;95.70;;;;;;5038557;28;20133;-94
2020/12/13 01:26:37;;;;;;;44.03;17.13;;;8.70;95.80;;;;;;5043029;28;20096;-93
2020/12/13 01:29:03;;;;;;;45.10;16.75;;;8.70;95.90;;;;;;5033941;28;20096;-94
2020/12/13 01:31:39;;;;;;;40.35;15.60;;;8.70;95.90;;;;;;5000103;28;20022;-94
2020/12/13 01:34:07;;;;;;;36.28;13.73;;;8.70;96.00;;;;;;5018040;28;20241;-93
2020/12/13 01:36:38;;;;;;;50.85;15.48;;;8.80;96.00;;;;;;5035008;28;20006;-92
2020/12/13 01:39:04;;;;;;;54.53;16.85;;;8.80;96.00;;;;;;5033971;28;20033;-91
2020/12/13 01:41:35;;;;;;;45.88;17.17;;;8.80;95.90;;;;;;5031752;28;20022;-94
2020/12/13 01:44:02;;;;;;;;;;;8.80;96.00;;;;;;5034245;28;20109;-93
2020/12/13 01:46:31;;;;;;;47.75;14.98;;;8.70;95.90;;;;;;5018395;28;19913;-91
2020/12/13 01:49:04;;;;;;;52.03;16.17;;;8.70;96.00;;;;;;5007771;28;20034;-92
2020/12/13 01:54:40;;;;;;;42.40;15.63;;;8.70;96.00;;;;;;4972466;28;20034;-93
2020/12/13 01:57:06;;;;;;;38.50;14.50;;;8.70;96.00;;;;;;4995680;28;20033;-93
2020/12/13 01:59:36;;;;;;;48.10;16.50;;;8.70;96.10;;;;;;5000608;28;20466;-94
2020/12/13 02:02:04;;;;;;;40.25;14.20;;;8.70;96.00;;;;;;5009515;28;20026;-94
2020/12/13 02:04:34;;;;;;;41.25;16.05;;;8.70;96.10;;;;;;5006748;28;20018;-93
2020/12/13 02:07:10;;;;;;;45.75;16.20;;;8.70;96.00;;;;;;5012903;28;20022;-93
2020/12/13 02:09:36;;;;;;;39.25;14.88;;;8.80;96.00;;;;;;5028044;28;20076;-93
2020/12/13 02:12:11;;;;;;;43.28;16.38;;;8.80;96.10;;;;;;5009504;28;20031;-94
2020/12/13 02:14:37;;;;;;;44.53;16.33;;;8.70;96.10;;;;;;5029417;28;20050;-92
2020/12/13 02:17:02;;;;;;;49.80;18.10;;;8.70;96.00;;;;;;4996811;28;20065;-93
2020/12/13 02:19:28;;;;;;;45.88;18.63;;;8.70;95.70;;;;;;5024232;28;20034;-94
2020/12/13 02:21:54;;;;;;;41.55;16.40;;;8.70;95.80;;;;;;5020807;28;20022;-93
2020/12/13 02:24:22;;;;;;;41.22;16.33;;;8.70;95.90;;;;;;5002687;28;20054;-90
2020/12/13 02:26:48;;;;;;;51.45;18.45;;;8.70;95.90;;;;;;4998847;28;20122;-92
2020/12/13 02:29:14;;;;;;;46.47;18.25;;;8.60;95.80;;;;;;5024993;28;20049;-93
2020/12/13 02:31:40;;;;;;;46.58;17.67;;;8.60;95.80;;;;;;5025271;28;20530;-93
2020/12/13 02:34:08;;;;;;;51.00;17.55;;;8.60;95.80;;;;;;5038103;28;20175;-94
2020/12/13 02:36:37;;;;;;;65.25;21.05;;;8.60;95.80;;;;;;5030682;28;20125;-92
2020/12/13 02:39:06;;;;;;;47.50;17.65;;;8.60;95.50;;;;;;5017088;28;20029;-92
2020/12/13 02:41:31;;;;;;;55.50;17.58;;;8.50;96.00;;;;;;5037366;28;20021;-94
2020/12/13 02:44:00;;;;;;;78.03;20.30;;;8.60;95.80;;;;;;5035470;28;20025;-93
2020/12/13 02:46:28;;;;;;;69.20;20.63;;;8.50;95.70;;;;;;5019447;28;20025;-93
2020/12/13 02:48:54;;;;;;;43.38;16.48;;;8.50;95.80;;;;;;5037265;28;20033;-93
2020/12/13 02:51:20;;;;;;;44.38;16.38;;;8.60;95.90;;;;;;5033751;28;20036;-92
2020/12/13 02:53:48;;;;;;;40.63;14.15;;;8.50;96.00;;;;;;5024961;28;20026;-94
2020/12/13 02:56:14;;;;;;;43.38;14.05;;;8.60;96.00;;;;;;5018684;28;20502;-93
2020/12/13 02:58:40;;;;;;;38.75;14.88;;;8.60;96.10;;;;;;5026923;28;20061;-93
2020/12/13 03:01:10;;;;;;;39.05;13.77;;;8.70;96.10;;;;;;5026198;28;20057;-93
2020/12/13 03:03:36;;;;;;;40.45;14.52;;;8.70;96.10;;;;;;4999875;28;20056;-94
2020/12/13 03:06:02;;;;;;;36.97;13.05;;;8.70;96.10;;;;;;5032420;28;20032;-92
2020/12/13 03:08:27;;;;;;;35.95;14.13;;;8.70;96.10;;;;;;5028878;28;20235;-92
2020/12/13 03:10:53;;;;;;;39.20;13.25;;;8.70;96.10;;;;;;5031633;28;20070;-90
2020/12/13 03:13:19;;;;;;;40.17;13.57;;;8.70;96.10;;;;;;5030633;28;20022;-92
2020/12/13 03:15:45;;;;;;;39.65;13.35;;;8.70;96.10;;;;;;5019244;28;20094;-93
2020/12/13 03:18:13;;;;;;;49.47;14.65;;;8.80;96.10;;;;;;5033786;28;20017;-91
2020/12/13 03:20:38;;;;;;;39.58;13.68;;;8.80;96.10;;;;;;5014883;28;20034;-92
2020/12/13 03:23:04;;;;;;;46.22;15.00;;;8.80;96.10;;;;;;5023890;28;20026;-92
2020/12/13 03:25:32;;;;;;;40.00;13.38;;;8.80;96.10;;;;;;5024831;28;20030;-92
2020/12/13 03:28:03;;;;;;;39.63;14.25;;;8.80;96.10;;;;;;5010993;28;20026;-94
2020/12/13 03:30:31;;;;;;;42.50;14.40;;;8.80;96.10;;;;;;5047696;28;20029;-93
2020/12/13 03:32:57;;;;;;;47.80;14.07;;;8.80;96.10;;;;;;5040247;28;20484;-92
2020/12/13 03:35:25;;;;;;;40.90;13.00;;;8.80;96.10;;;;;;5018189;28;20022;-92
2020/12/13 03:37:54;;;;;;;52.15;14.48;;;8.80;96.10;;;;;;5021925;28;20017;-93
2020/12/13 03:40:19;;;;;;;43.47;14.73;;;8.80;96.10;;;;;;5036030;28;20025;-92
2020/12/13 03:42:45;;;;;;;41.65;13.95;;;8.80;96.10;;;;;;5031904;28;20068;-92
2020/12/13 03:45:11;;;;;;;44.75;14.10;;;8.80;96.10;;;;;;5008181;28;20104;-92
2020/12/13 03:47:39;;;;;;;41.40;13.68;;;8.80;96.10;;;;;;5035107;28;20033;-93
2020/12/13 03:50:05;;;;;;;41.05;13.70;;;8.90;96.10;;;;;;5026646;28;20022;-93
2020/12/13 03:52:31;;;;;;;58.35;15.57;;;8.90;96.10;;;;;;5029954;28;20083;-92
2020/12/13 03:54:59;;;;;;;43.38;14.85;;;8.90;96.10;;;;;;5034690;28;20022;-91
2020/12/13 03:57:25;;;;;;;56.40;15.50;;;8.80;96.10;;;;;;5034900;28;20029;-94
2020/12/13 03:59:50;;;;;;;49.33;15.05;;;8.90;96.10;;;;;;5020763;28;20034;-93
2020/12/13 04:02:16;;;;;;;70.97;19.38;;;8.90;96.10;;;;;;5024939;28;20033;-92
2020/12/13 04:04:42;;;;;;;82.38;19.33;;;8.80;96.00;;;;;;5030800;28;20069;-93
2020/12/13 04:07:10;;;;;;;63.80;18.55;;;8.90;96.00;;;;;;5034824;28;20032;-92
2020/12/13 04:09:36;;;;;;;75.05;18.48;;;8.80;96.00;;;;;;5020599;28;20191;-92
2020/12/13 04:12:01;;;;;;;69.72;18.75;;;8.80;96.00;;;;;;5035043;28;20060;-92
2020/12/13 04:14:35;;;;;;;72.28;18.83;;;8.80;96.00;;;;;;5035173;28;20045;-93
2020/12/13 04:17:01;;;;;;;53.35;16.23;;;8.70;96.00;;;;;;5032381;28;20060;-92
2020/12/13 04:19:27;;;;;;;67.30;17.33;;;8.70;96.00;;;;;;5009615;28;20058;-92
2020/12/13 04:21:52;;;;;;;50.42;17.02;;;8.80;96.00;;;;;;5006177;28;20026;-92
2020/12/13 04:24:22;;;;;;;50.35;16.67;;;8.70;96.00;;;;;;5028502;28;20876;-92
2020/12/13 04:26:47;;;;;;;49.90;15.48;;;8.80;96.10;;;;;;5018953;28;20068;-91
2020/12/13 04:29:13;;;;;;;59.10;17.27;;;8.80;96.10;;;;;;5033926;28;20132;-92
2020/12/13 04:31:39;;;;;;;48.33;16.58;;;8.80;96.10;;;;;;5034181;28;20022;-92
2020/12/13 04:34:05;;;;;;;44.10;14.70;;;8.80;96.10;;;;;;5031808;28;20040;-92
2020/12/13 04:36:30;;;;;;;39.15;13.85;;;8.80;96.10;;;;;;5005923;28;20462;-93
2020/12/13 04:38:56;;;;;;;57.42;14.90;;;8.80;96.10;;;;;;5001648;28;20030;-93
2020/12/13 04:41:21;;;;;;;58.17;19.77;;;8.80;96.10;;;;;;4997825;28;20037;-93
2020/12/13 04:43:48;;;;;;;59.22;19.02;;;8.80;96.00;;;;;;5011327;28;20036;-92
2020/12/13 04:46:17;;;;;;;66.97;18.20;;;8.80;96.00;;;;;;5036070;28;20060;-92
2020/12/13 04:48:42;;;;;;;58.42;18.45;;;8.80;96.10;;;;;;5048818;28;20060;-92
2020/12/13 04:51:09;;;;;;;60.90;19.38;;;8.80;96.00;;;;;;5034855;28;20026;-92
2020/12/13 04:53:38;;;;;;;69.07;20.17;;;8.80;96.00;;;;;;5048871;28;20041;-92
2020/12/13 04:56:09;;;;;;;74.63;20.42;;;8.80;96.00;;;;;;5053504;28;20025;-92
2020/12/13 04:58:38;;;;;;;67.82;20.65;;;8.80;96.00;;;;;;5052989;28;20040;-92
2020/12/13 05:01:03;;;;;;;52.00;17.15;;;8.80;96.00;;;;;;5022141;28;20046;-92
2020/12/13 05:03:30;;;;;;;49.50;17.45;;;8.80;96.10;;;;;;5014929;28;20049;-92
2020/12/13 05:06:01;;;;;;;66.78;20.48;;;8.80;96.10;;;;;;4997348;28;20155;-91
2020/12/13 05:08:28;;;;;;;80.00;23.33;;;8.80;96.10;;;;;;4995909;28;20116;-93
2020/12/13 05:10:56;;;;;;;70.88;23.05;;;8.90;96.00;;;;;;5007518;28;20048;-92
2020/12/13 05:13:25;;;;;;;81.55;25.40;;;8.80;96.00;;;;;;5010058;28;20034;-91
2020/12/13 05:15:51;;;;;;;68.28;24.35;;;8.80;96.00;;;;;;5006502;28;20026;-91
2020/12/13 05:18:16;;;;;;;78.85;25.23;;;8.80;96.10;;;;;;5006948;28;20089;-92
2020/12/13 05:20:46;;;;;;;57.28;21.38;;;8.80;96.00;;;;;;5015838;28;20028;-91
2020/12/13 05:23:15;;;;;;;63.53;22.13;;;8.80;96.20;;;;;;5023721;28;20022;-92
2020/12/13 05:25:43;;;;;;;76.18;23.02;;;8.90;96.30;;;;;;5022278;28;20026;-92
2020/12/13 05:28:13;;;;;;;73.03;26.20;;;8.90;96.30;;;;;;5012176;28;20046;-91
2020/12/13 05:30:45;;;;;;;72.68;24.58;;;8.90;96.20;;;;;;5011785;28;20076;-92
2020/12/13 05:33:38;;;;;;;72.05;26.38;;;8.90;96.20;;;;;;5008719;28;20019;-91
2020/12/13 05:36:05;;;;;;;59.63;24.47;;;8.90;96.20;;;;;;5018437;28;20427;-92
2020/12/13 05:38:37;;;;;;;77.13;26.67;;;8.90;96.20;;;;;;5028114;28;20021;-92
2020/12/13 05:41:08;;;;;;;125.55;34.13;;;8.90;96.20;;;;;;5024086;28;20033;-92
2020/12/13 05:43:40;;;;;;;57.57;24.83;;;8.90;96.10;;;;;;5016601;28;20030;-92
2020/12/13 05:51:17;;;;;;;60.67;24.27;;;8.90;96.20;;;;;;5007759;28;20056;-91
2020/12/13 05:53:44;;;;;;;82.10;26.67;;;8.90;96.30;;;;;;5005913;28;20273;-92
2020/12/13 05:56:10;;;;;;;78.68;25.67;;;8.90;96.30;;;;;;5020764;28;20030;-92
2020/12/13 05:58:36;;;;;;;82.85;26.02;;;9.00;96.40;;;;;;5020498;28;20527;-90
2020/12/13 06:01:06;;;;;;;69.90;24.20;;;9.00;96.30;;;;;;5017050;28;20038;-92
2020/12/13 06:03:42;;;;;;;70.10;25.80;;;8.90;96.30;;;;;;5030865;28;20492;-92
2020/12/13 06:06:13;;;;;;;70.40;25.05;;;9.00;96.30;;;;;;5027605;28;20024;-90
2020/12/13 06:08:55;;;;;;;75.28;25.95;;;9.00;96.30;;;;;;4993006;28;20026;-92
2020/12/13 06:11:28;;;;;;;103.80;30.48;;;9.00;96.30;;;;;;5021062;28;20026;-91
2020/12/13 06:13:59;;;;;;;57.00;23.48;;;9.00;96.10;;;;;;5036388;28;20018;-90
2020/12/13 06:16:25;;;;;;;91.20;27.73;;;9.00;96.40;;;;;;5019925;28;20053;-91
2020/12/13 06:18:53;;;;;;;67.78;24.15;;;8.90;96.20;;;;;;5029362;28;20034;-91
2020/12/13 06:21:19;;;;;;;76.32;25.23;;;8.90;96.30;;;;;;5025046;28;20029;-92
2020/12/13 06:23:49;;;;;;;57.65;22.15;;;8.90;96.30;;;;;;5005912;28;20018;-92
2020/12/13 06:26:16;;;;;;;66.95;24.73;;;9.00;96.40;;;;;;4997724;28;20065;-93
2020/12/13 06:28:44;;;;;;;66.85;24.50;;;9.00;96.30;;;;;;5008142;28;20187;-91
2020/12/13 06:31:23;;;;;;;80.40;24.77;;;9.00;96.30;;;;;;4996420;28;20530;-91
2020/12/13 06:33:49;;;;;;;77.15;26.13;;;9.00;96.30;;;;;;5026938;28;20025;-91
2020/12/13 06:36:22;;;;;;;65.40;23.85;;;9.00;96.20;;;;;;5032714;28;20104;-91
2020/12/13 06:38:58;;;;;;;85.07;26.23;;;9.00;96.20;;;;;;5019317;28;20084;-92
2020/12/13 06:41:30;;;;;;;57.53;23.75;;;9.00;96.10;;;;;;4999676;28;20478;-91
2020/12/13 06:44:03;;;;;;;73.90;23.90;;;9.00;96.20;;;;;;5012273;28;20177;-91
2020/12/13 06:46:30;;;;;;;60.70;22.42;;;9.00;96.20;;;;;;5015773;28;20037;-92
2020/12/13 06:48:56;;;;;;;73.85;24.77;;;9.00;96.30;;;;;;5020053;28;20037;-92
2020/12/13 06:51:28;;;;;;;57.53;22.52;;;9.00;96.20;;;;;;5026309;28;20026;-92
2020/12/13 06:53:54;;;;;;;57.20;22.33;;;9.00;96.20;;;;;;5013038;28;20026;-92
2020/12/13 06:56:21;;;;;;;64.03;22.33;;;9.00;96.20;;;;;;5027135;28;20028;-91
2020/12/13 06:58:56;;;;;;;80.97;26.02;;;9.10;96.30;;;;;;5022768;28;20025;-91
2020/12/13 07:01:38;;;;;;;53.50;21.83;;;9.10;96.10;;;;;;5031911;28;20527;-91
2020/12/13 07:04:31;;;;;;;57.47;21.50;;;9.00;96.30;;;;;;5032019;28;20022;-92
2020/12/13 07:07:01;;;;;;;52.42;21.80;;;9.10;96.30;;;;;;5032513;28;20014;-91
2020/12/13 07:09:29;;;;;;;73.03;25.77;;;9.10;96.20;;;;;;5033353;28;20079;-91
2020/12/13 07:11:56;;;;;;;58.17;20.95;;;9.10;96.10;;;;;;5028205;28;20344;-91
2020/12/13 07:14:25;;;;;;;50.88;20.95;;;9.10;96.30;;;;;;5028653;28;20465;-91
2020/12/13 07:17:01;;;;;;;59.40;22.33;;;9.10;96.20;;;;;;5030741;28;20028;-91
2020/12/13 07:19:35;;;;;;;67.07;23.88;;;9.10;96.20;;;;;;5025572;28;20058;-91
2020/12/13 07:22:06;;;;;;;46.50;19.48;;;9.10;96.10;;;;;;5016765;28;20026;-91
2020/12/13 07:24:32;;;;;;;53.83;20.83;;;9.10;96.20;;;;;;5036806;28;20547;-91
2020/12/13 07:27:00;;;;;;;50.45;20.40;;;9.10;96.20;;;;;;5022232;28;20113;-91
2020/12/13 07:29:28;;;;;;;52.78;20.02;;;9.10;96.20;;;;;;5016506;28;20050;-91
2020/12/13 07:32:02;;;;;;;68.68;23.15;;;9.10;96.20;;;;;;5027833;28;20064;-91
2020/12/13 07:34:28;;;;;;;42.30;18.30;;;9.10;96.10;;;;;;5022252;28;20037;-90
2020/12/13 07:36:57;;;;;;;51.85;20.13;;;9.10;96.30;;;;;;5035534;28;20097;-91
2020/12/13 07:39:32;;;;;;;63.60;23.00;;;9.20;96.20;;;;;;5017045;28;20029;-91
2020/12/13 07:42:35;;;;;;;;;;;;;;;;;;;;;
2020/12/13 07:45:02;;;;;;;69.95;22.50;;;9.10;96.10;;;;;;5023257;28;20028;-92
2020/12/13 07:47:28;;;;;;;49.40;19.80;;;9.10;96.10;;;;;;5020911;28;20069;-91
2020/12/13 07:50:03;;;;;;;65.15;23.75;;;9.10;96.20;;;;;;5021442;28;20022;-92
2020/12/13 07:52:31;;;;;;;48.92;20.70;;;9.20;96.10;;;;;;5034975;28;20022;-91
2020/12/13 07:55:07;;;;;;;44.05;20.20;;;9.10;96.20;;;;;;5015633;28;20021;-91
2020/12/13 07:57:35;;;;;;;86.97;26.23;;;9.10;96.20;;;;;;5015427;28;20026;-91
2020/12/13 08:00:08;;;;;;;45.08;21.23;;;9.10;96.00;;;;;;5016009;28;20129;-91
2020/12/13 08:02:34;;;;;;;51.97;23.20;;;9.10;96.20;;;;;;5015705;28;20033;-91
2020/12/13 08:05:00;;;;;;;57.78;21.77;;;9.10;96.10;;;;;;5017140;28;20033;-92
2020/12/13 08:07:28;;;;;;;51.72;21.48;;;9.20;96.10;;;;;;5034731;28;20025;-91
2020/12/13 08:09:58;;;;;;;41.80;20.40;;;9.20;96.10;;;;;;5018061;28;20037;-91
2020/12/13 08:12:39;;;;;;;60.03;23.30;;;9.10;96.10;;;;;;5012794;28;20428;-91
2020/12/13 08:15:05;;;;;;;62.88;24.95;;;9.10;95.90;;;;;;5015722;28;20057;-90
2020/12/13 08:17:31;;;;;;;45.20;21.75;;;9.10;95.90;;;;;;5029663;28;20029;-91
2020/12/13 08:20:03;;;;;;;50.97;22.70;;;9.00;96.00;;;;;;5026774;28;20021;-91
2020/12/13 08:22:34;;;;;;;45.83;20.85;;;9.00;95.90;;;;;;5034185;28;20029;-91
2020/12/13 08:25:04;;;;;;;47.28;21.83;;;9.00;96.10;;;;;;5023745;28;20022;-90
2020/12/13 08:27:44;;;;;;;35.55;18.75;;;9.00;96.00;;;;;;5015707;28;20018;-90
2020/12/13 08:30:20;;;;;;;34.90;18.08;;;9.00;96.10;;;;;;5050181;28;20128;-91
2020/12/13 08:32:46;;;;;;;37.15;18.50;;;9.10;96.20;;;;;;5047028;28;20026;-91
2020/12/13 08:35:18;;;;;;;58.33;22.92;;;9.00;96.10;;;;;;5035153;28;20029;-90
2020/12/13 08:38:03;;;;;;;40.85;20.58;;;9.00;96.00;;;;;;5053538;28;20374;-90
2020/12/13 08:40:37;;;;;;;49.92;22.67;;;9.00;96.00;;;;;;5041656;28;20026;-90
2020/12/13 08:43:03;;;;;;;35.00;17.08;;;9.00;95.90;;;;;;5030531;28;20020;-88
2020/12/13 08:45:32;;;;;;;35.50;17.25;;;9.00;96.10;;;;;;5011945;28;20026;-91
2020/12/13 08:48:34;;;;;;;34.13;17.45;;;9.10;96.10;;;;;;5033027;28;20022;-92
2020/12/13 08:51:30;;;;;;;46.72;20.27;;;9.10;96.10;;;;;;5020309;28;20024;-91
2020/12/13 08:54:02;;;;;;;39.60;19.08;;;9.10;95.90;;;;;;5031646;28;20103;-91
2020/12/13 08:56:41;;;;;;;44.83;20.30;;;9.10;95.90;;;;;;5038868;28;20022;-91
2020/12/13 08:59:15;;;;;;;33.03;18.38;;;9.00;95.80;;;;;;5013908;28;20060;-91
2020/12/13 09:01:55;;;;;;;33.70;17.63;;;9.00;96.00;;;;;;5018791;28;20475;-91
2020/12/13 09:04:28;;;;;;;44.33;19.40;;;9.00;96.00;;;;;;5042154;28;20041;-91
2020/12/13 09:07:07;;;;;;;;;;;;;;;;;;;;;
2020/12/13 09:09:36;;;;;;;37.53;18.98;;;9.00;95.90;;;;;;5013459;28;20037;-91
2020/12/13 09:12:17;;;;;;;34.17;18.02;;;9.00;95.80;;;;;;5026978;28;20022;-91
2020/12/13 09:14:49;;;;;;;56.10;23.00;;;9.00;95.90;;;;;;5024066;28;20049;-91
2020/12/13 09:17:23;;;;;;;46.08;20.73;;;8.90;95.70;;;;;;5028970;28;20527;-90
2020/12/13 09:19:51;;;;;;;35.83;19.60;;;8.90;95.90;;;;;;5031079;28;20047;-91
2020/12/13 09:22:28;;;;;;;46.30;21.67;;;8.90;96.00;;;;;;5015827;28;20030;-90
2020/12/13 09:24:57;;;;;;;54.30;23.95;;;8.90;96.20;;;;;;5025852;28;20120;-90
2020/12/13 09:27:27;;;;;;;63.78;26.85;;;8.90;96.00;;;;;;5015582;28;20100;-91
2020/12/13 09:29:56;;;;;;;50.80;23.70;;;8.90;95.90;;;;;;4999215;28;20464;-91
2020/12/13 09:32:22;;;;;;;44.70;21.88;;;8.90;96.00;;;;;;5037260;28;20033;-90
2020/12/13 09:34:48;;;;;;;44.60;22.95;;;8.80;96.00;;;;;;5036464;28;20113;-89
2020/12/13 09:37:16;;;;;;;56.78;24.90;;;8.90;96.10;;;;;;5033324;28;20135;-89
2020/12/13 09:39:42;;;;;;;55.88;26.52;;;8.90;96.10;;;;;;5019005;28;20112;-89
2020/12/13 09:42:09;;;;;;;57.47;27.88;;;8.90;96.00;;;;;;5017138;28;20060;-90
2020/12/13 09:44:34;;;;;;;54.60;24.05;;;8.90;96.10;;;;;;5017412;28;20026;-90
2020/12/13 09:47:07;;;;;;;56.40;26.85;;;8.90;96.10;;;;;;5019487;28;20032;-91
2020/12/13 09:49:33;;;;;;;66.13;30.38;;;8.90;96.10;;;;;;5021428;28;20025;-90
2020/12/13 09:52:03;;;;;;;47.00;23.85;;;8.80;95.90;;;;;;5022086;28;20052;-90
2020/12/13 09:54:31;;;;;;;42.58;23.25;;;8.90;96.20;;;;;;5023956;28;20429;-89
2020/12/13 09:56:58;;;;;;;59.85;27.88;;;8.90;96.20;;;;;;5031321;28;20110;-90
2020/12/13 09:59:25;;;;;;;73.47;32.85;;;8.90;96.10;;;;;;5033536;28;20032;-83
2020/12/13 10:02:01;;;;;;;78.10;33.38;;;8.80;96.00;;;;;;5008306;28;20029;-89
2020/12/13 10:04:29;;;;;;;50.70;27.52;;;8.80;96.00;;;;;;5039363;28;20044;-90
2020/12/13 10:09:39;;;;;;;69.82;32.20;;;8.90;96.00;;;;;;5026719;28;20048;-89
2020/12/13 10:12:12;;;;;;;58.95;30.27;;;8.80;96.00;;;;;;5028962;28;20025;-89
2020/12/13 10:14:41;;;;;;;65.20;31.67;;;8.90;96.10;;;;;;5035724;28;20032;-90
2020/12/13 10:17:07;;;;;;;58.30;30.70;;;8.90;96.10;;;;;;5018288;28;20022;-90
2020/12/13 10:19:39;;;;;;;62.65;32.35;;;8.90;96.00;;;;;;5034986;28;20060;-89
2020/12/13 10:22:10;;;;;;;73.22;36.90;;;8.90;96.00;;;;;;5033517;28;20024;-89
2020/12/13 10:25:08;;;;;;;;;;;;;;;;;;;;;
2020/12/13 10:27:37;;;;;;;64.38;32.00;;;8.90;95.90;;;;;;5029754;28;20029;-89
2020/12/13 10:30:06;;;;;;;60.28;31.02;;;8.90;95.80;;;;;;5013868;28;20072;-87
2020/12/13 10:32:36;;;;;;;52.40;30.33;;;8.90;95.90;;;;;;4994020;28;20030;-89
2020/12/13 10:35:09;;;;;;;52.10;29.23;;;8.90;95.80;;;;;;5030064;28;20105;-89
2020/12/13 10:37:53;;;;;;;60.72;31.08;;;8.90;95.80;;;;;;5004919;28;20242;-89
2020/12/13 10:40:22;;;;;;;58.53;30.50;;;8.80;95.80;;;;;;5024881;28;20556;-89
2020/12/13 10:42:48;;;;;;;61.78;30.85;;;8.80;95.70;;;;;;4985194;28;20028;-90
2020/12/13 10:45:14;;;;;;;52.28;30.38;;;8.80;95.80;;;;;;5021172;28;20377;-90
2020/12/13 10:47:51;;;;;;;46.70;27.00;;;8.90;95.80;;;;;;5023734;28;20093;-88
2020/12/13 10:50:19;;;;;;;55.58;29.13;;;8.90;95.90;;;;;;4998751;28;20140;-89
2020/12/13 10:52:48;;;;;;;64.53;30.98;;;8.90;95.80;;;;;;5021577;28;20036;-88
2020/12/13 10:55:15;;;;;;;52.92;30.58;;;8.90;95.70;;;;;;5025151;28;20022;-87
2020/12/13 10:57:44;;;;;;;50.53;28.10;;;8.90;95.90;;;;;;4994509;28;20030;-89
2020/12/13 11:00:12;;;;;;;43.80;27.00;;;8.90;95.80;;;;;;5014296;28;20065;-88
2020/12/13 11:02:38;;;;;;;53.50;29.27;;;8.90;95.80;;;;;;5013965;28;20454;-95
2020/12/13 11:05:04;;;;;;;44.28;25.80;;;8.90;95.60;;;;;;5015339;28;20104;-94
2020/12/13 11:07:29;;;;;;;42.63;23.92;;;8.90;95.60;;;;;;5009479;28;20457;-90
2020/12/13 11:10:02;;;;;;;47.25;25.58;;;8.90;95.60;;;;;;5000772;28;20022;-88
2020/12/13 11:12:28;;;;;;;43.85;25.67;;;8.90;95.50;;;;;;5018129;28;20038;-88
2020/12/13 11:15:03;;;;;;;37.25;22.45;;;8.90;95.40;;;;;;5042865;28;20096;-89
2020/12/13 11:17:35;;;;;;;41.45;21.55;;;8.90;95.60;;;;;;5036402;28;20069;-89
2020/12/13 11:20:06;;;;;;;34.30;20.85;;;8.90;95.30;;;;;;5037216;28;20029;-89
2020/12/13 11:22:34;;;;;;;33.28;19.48;;;8.90;95.40;;;;;;5019492;28;20013;-90
2020/12/13 11:25:26;;;;;;;28.20;16.67;;;8.90;95.30;;;;;;5021061;28;20052;-93
2020/12/13 11:27:54;;;;;;;24.92;15.38;;;8.90;95.30;;;;;;5021562;28;20353;-88
2020/12/13 11:30:30;;;;;;;22.00;14.13;;;8.90;95.30;;;;;;5021951;28;20037;-93
2020/12/13 11:33:03;;;;;;;24.63;15.15;;;8.90;95.30;;;;;;5044589;28;20026;-92
2020/12/13 11:35:38;;;;;;;23.90;12.38;;;9.00;95.20;;;;;;5021120;28;20018;-93
2020/12/13 11:38:04;;;;;;;24.80;12.82;;;9.00;95.40;;;;;;5041901;28;20037;-90
2020/12/13 11:40:30;;;;;;;28.73;12.75;;;9.10;95.20;;;;;;5052492;28;20053;-92
2020/12/13 11:42:56;;;;;;;24.55;11.52;;;9.00;94.90;;;;;;5028620;28;20032;-91
2020/12/13 11:45:21;;;;;;;17.85;10.55;;;9.10;94.70;;;;;;5040445;28;20112;-90
2020/12/13 11:47:48;;;;;;;16.35;9.38;;;8.90;94.50;;;;;;5021533;28;20091;-92
2020/12/13 11:50:16;;;;;;;22.88;10.13;;;9.00;94.80;;;;;;5048004;28;20018;-91
2020/12/13 11:52:44;;;;;;;17.70;8.18;;;9.00;94.60;;;;;;5052160;28;20021;-91
2020/12/13 11:55:20;;;;;;;19.60;9.50;;;9.00;94.30;;;;;;5045833;28;20021;-92
2020/12/13 11:57:48;;;;;;;17.77;9.50;;;9.00;94.60;;;;;;5038548;28;20048;-92
2020/12/13 12:00:14;;;;;;;19.00;9.40;;;9.00;94.60;;;;;;5034677;28;20044;-91
2020/12/13 12:02:40;;;;;;;15.90;7.30;;;9.00;94.70;;;;;;5031036;28;20024;-91
2020/12/13 12:05:11;;;;;;;14.80;7.88;;;9.10;94.50;;;;;;5034907;28;20023;-91
2020/12/13 12:07:37;;;;;;;16.40;7.15;;;9.10;94.60;;;;;;5034759;28;20025;-91
2020/12/13 12:10:05;;;;;;;19.25;8.18;;;9.10;94.70;;;;;;5032128;28;20032;-90
2020/12/13 12:12:31;;;;;;;17.40;6.53;;;9.10;94.60;;;;;;5043171;28;20036;-91
2020/12/13 12:14:56;;;;;;;14.52;5.80;;;9.10;94.10;;;;;;5026585;28;20026;-90
2020/12/13 12:17:25;;;;;;;13.35;5.75;;;9.10;93.80;;;;;;5048344;28;20105;-90
2020/12/13 12:19:52;;;;;;;14.27;6.20;;;9.10;93.50;;;;;;5034456;28;20108;-90
2020/12/13 12:22:17;;;;;;;13.50;5.70;;;9.10;93.50;;;;;;5051314;28;20021;-90
2020/12/13 12:24:43;;;;;;;13.27;5.88;;;9.10;93.40;;;;;;5045286;28;20080;-89
2020/12/13 12:27:11;;;;;;;14.43;5.22;;;9.10;93.50;;;;;;5045161;28;20026;-89
2020/12/13 12:29:37;;;;;;;14.38;5.60;;;9.00;93.30;;;;;;5037448;28;20050;-90
2020/12/13 12:32:03;;;;;;;15.88;6.78;;;9.10;93.70;;;;;;5048376;28;20079;-89
2020/12/13 12:34:29;;;;;;;12.63;6.18;;;9.10;93.30;;;;;;5053458;28;20116;-87
2020/12/13 12:36:55;;;;;;;14.00;6.38;;;9.10;93.30;;;;;;5024708;28;20052;-86
2020/12/13 12:39:22;;;;;;;12.38;5.93;;;9.10;93.30;;;;;;5046516;28;20033;-92
2020/12/13 12:41:51;;;;;;;11.95;5.68;;;9.10;93.50;;;;;;5016354;28;20033;-90
2020/12/13 12:44:17;;;;;;;11.02;5.07;;;9.20;93.60;;;;;;5039790;28;20027;-93
2020/12/13 12:46:42;;;;;;;12.93;5.35;;;9.20;93.50;;;;;;5032846;28;20115;-82
2020/12/13 12:49:10;;;;;;;10.93;4.72;;;9.20;93.60;;;;;;5018605;28;20029;-94
2020/12/13 12:51:38;;;;;;;12.13;5.50;;;9.20;93.70;;;;;;5010672;28;20504;-93
2020/12/13 12:54:04;;;;;;;15.40;6.07;;;9.30;93.70;;;;;;5032727;28;20068;-92
2020/12/13 12:56:42;;;;;;;;;;;;;;;;;;;;;
2020/12/13 12:59:23;;;;;;;13.73;5.20;;;9.30;93.40;;;;;;5033544;28;20070;-92
2020/12/13 13:01:53;;;;;;;10.63;5.25;;;9.20;92.90;;;;;;5025185;28;20029;-91
2020/12/13 13:04:25;;;;;;;11.07;5.63;;;9.20;92.70;;;;;;5036309;28;20060;-91